createdAt,value
2022-11-16T00:00:04.435Z,12.63
2022-11-16T00:02:37.324Z,16.03
2022-11-16T00:05:08.855Z,14.10
2022-11-16T00:07:40.393Z,15.53
2022-11-16T00:10:11.879Z,14.80
2022-11-16T00:12:43.178Z,11.80
2022-11-16T00:15:14.453Z,15.87
2022-11-16T00:17:45.699Z,13.37
2022-11-16T00:20:16.994Z,15.90
2022-11-16T00:22:48.327Z,15.27
2022-11-16T00:25:19.580Z,15.53
2022-11-16T00:27:50.841Z,14.40
2022-11-16T00:30:22.129Z,16.20
2022-11-16T00:32:53.529Z,16.57
2022-11-16T00:35:24.794Z,13.70
2022-11-16T00:37:56.056Z,14.83
2022-11-16T00:40:27.326Z,16.50
2022-11-16T00:42:58.642Z,17.67
2022-11-16T00:45:29.973Z,15.13
2022-11-16T00:48:01.256Z,16.83
2022-11-16T00:50:32.582Z,15.60
2022-11-16T00:53:05.166Z,15.70
2022-11-16T00:55:37.542Z,16.67
2022-11-16T00:58:08.826Z,16.10
2022-11-16T01:00:40.985Z,16.33
2022-11-16T01:03:12.368Z,15.30
2022-11-16T01:05:43.650Z,17.57
2022-11-16T01:08:14.921Z,15.53
2022-11-16T01:10:46.193Z,16.33
2022-11-16T01:13:17.468Z,19.33
2022-11-16T01:15:48.898Z,18.33
2022-11-16T01:18:20.151Z,19.27
2022-11-16T01:20:53.513Z,17.30
2022-11-16T01:23:24.863Z,17.23
2022-11-16T01:26:01.730Z,19.77
2022-11-16T01:28:33.480Z,18.20
2022-11-16T01:31:05.045Z,22.23
2022-11-16T01:33:36.973Z,18.00
2022-11-16T01:36:14.180Z,17.07
2022-11-16T01:38:47.079Z,20.93
2022-11-16T01:41:22.026Z,20.67
2022-11-16T01:43:56.014Z,19.90
2022-11-16T01:46:28.825Z,21.80
2022-11-16T01:49:08.029Z,22.07
2022-11-16T01:51:42.463Z,20.37
2022-11-16T01:54:14.467Z,23.47
2022-11-16T01:56:48.075Z,21.43
2022-11-16T01:59:19.498Z,23.03
2022-11-16T02:01:50.820Z,23.47
2022-11-16T02:04:22.128Z,22.50
2022-11-16T02:07:30.144Z,21.13
2022-11-16T02:10:28.937Z,23.13
2022-11-16T02:13:45.511Z,26.30
2022-11-16T02:16:42.025Z,25.00
2022-11-16T02:19:24.311Z,22.35
2022-11-16T02:22:34.347Z,28.33
2022-11-16T02:25:29.426Z,25.10
2022-11-16T02:28:29.744Z,25.97
2022-11-16T02:31:05.420Z,28.97
2022-11-16T02:33:41.669Z,26.67
2022-11-16T02:38:54.342Z,25.47
2022-11-16T02:41:28.413Z,27.30
2022-11-16T02:44:21.417Z,25.77
2022-11-16T02:46:58.308Z,26.13
2022-11-16T02:49:32.589Z,25.50
2022-11-16T02:52:04.740Z,28.87
2022-11-16T02:54:36.005Z,25.70
2022-11-16T02:57:07.274Z,28.90
2022-11-16T02:59:44.315Z,29.67
2022-11-16T03:02:38.140Z,30.43
2022-11-16T03:05:20.296Z,29.83
2022-11-16T03:08:09.839Z,26.23
2022-11-16T03:11:03.396Z,30.37
2022-11-16T03:13:37.403Z,27.63
2022-11-16T03:16:23.193Z,26.47
2022-11-16T03:18:58.304Z,28.23
2022-11-16T03:21:58.037Z,30.80
2022-11-16T03:24:29.465Z,30.33
2022-11-16T03:27:21.708Z,29.27
2022-11-16T03:29:52.932Z,28.33
2022-11-16T03:32:33.417Z,28.47
2022-11-16T03:35:26.473Z,26.00
2022-11-16T03:38:00.413Z,29.47
2022-11-16T03:40:34.240Z,26.57
2022-11-16T03:43:07.711Z,33.40
2022-11-16T03:45:39.033Z,28.47
2022-11-16T03:48:11.567Z,27.67
2022-11-16T03:50:43.657Z,25.77
2022-11-16T03:53:14.998Z,29.03
2022-11-16T03:55:49.754Z,29.30
2022-11-16T03:58:21.714Z,26.07
2022-11-16T04:00:53.351Z,34.07
2022-11-16T04:03:24.677Z,27.50
2022-11-16T04:06:14.489Z,30.70
2022-11-16T04:09:04.221Z,27.87
2022-11-16T04:11:54.633Z,28.10
2022-11-16T04:14:46.170Z,31.60
2022-11-16T04:17:37.671Z,27.17
2022-11-16T04:20:29.605Z,25.83
2022-11-16T04:23:27.906Z,28.20
2022-11-16T04:25:59.872Z,29.23
2022-11-16T04:28:34.291Z,32.80
2022-11-16T04:31:24.996Z,26.77
2022-11-16T04:34:14.821Z,27.97
2022-11-16T04:37:05.740Z,29.17
2022-11-16T04:39:37.073Z,30.00
2022-11-16T04:42:22.186Z,28.30
2022-11-16T04:45:11.928Z,30.10
2022-11-16T04:47:43.206Z,30.57
2022-11-16T04:50:14.558Z,31.20
2022-11-16T04:52:46.011Z,30.37
2022-11-16T04:55:17.445Z,30.13
2022-11-16T04:57:49.036Z,27.47
2022-11-16T05:00:21.154Z,27.77
2022-11-16T05:02:55.688Z,29.13
2022-11-16T05:05:31.191Z,26.53
2022-11-16T05:08:02.495Z,25.97
2022-11-16T05:10:33.868Z,31.30
2022-11-16T05:13:05.159Z,30.13
2022-11-16T05:15:36.428Z,27.37
2022-11-16T05:18:07.693Z,29.00
2022-11-16T05:20:57.388Z,24.27
2022-11-16T05:23:47.424Z,25.10
2022-11-16T05:26:18.788Z,29.27
2022-11-16T05:28:50.053Z,27.70
2022-11-16T05:31:21.319Z,30.63
2022-11-16T05:33:52.597Z,29.27
2022-11-16T05:36:23.954Z,31.00
2022-11-16T05:38:56.470Z,30.03
2022-11-16T05:41:27.970Z,27.93
2022-11-16T05:43:59.443Z,29.67
2022-11-16T05:46:30.759Z,28.93
2022-11-16T05:49:02.153Z,26.67
2022-11-16T05:51:35.309Z,31.10
2022-11-16T05:54:06.839Z,27.70
2022-11-16T05:56:38.491Z,31.73
2022-11-16T05:59:16.432Z,26.13
2022-11-16T06:01:48.227Z,28.27
2022-11-16T06:04:24.333Z,28.20
2022-11-16T06:06:56.046Z,24.83
2022-11-16T06:09:27.419Z,26.03
2022-11-16T06:11:58.822Z,28.30
2022-11-16T06:14:30.109Z,27.93
2022-11-16T06:17:01.377Z,31.57
2022-11-16T06:19:32.861Z,28.70
2022-11-16T06:22:04.206Z,31.67
2022-11-16T06:24:35.529Z,28.63
2022-11-16T06:27:06.793Z,30.57
2022-11-16T06:29:38.047Z,27.53
2022-11-16T06:32:09.389Z,27.10
2022-11-16T06:34:40.674Z,21.40
2022-11-16T06:37:12.020Z,25.70
2022-11-16T06:39:43.299Z,26.47
2022-11-16T06:42:14.636Z,27.07
2022-11-16T06:44:45.887Z,26.37
2022-11-16T06:47:17.148Z,32.87
2022-11-16T06:49:48.431Z,25.40
2022-11-16T06:52:19.747Z,27.73
2022-11-16T06:54:51.036Z,29.43
2022-11-16T06:57:22.457Z,27.77
2022-11-16T06:59:53.919Z,24.53
2022-11-16T07:02:25.179Z,32.07
2022-11-16T07:05:02.090Z,27.83
2022-11-16T07:07:34.750Z,30.97
2022-11-16T07:10:07.340Z,27.17
2022-11-16T07:12:38.781Z,27.33
2022-11-16T07:15:10.445Z,27.30
2022-11-16T07:17:42.810Z,30.57
2022-11-16T07:20:14.186Z,29.97
2022-11-16T07:22:45.519Z,28.97
2022-11-16T07:25:16.815Z,25.63
2022-11-16T07:27:48.067Z,27.03
2022-11-16T07:30:19.495Z,28.97
2022-11-16T07:32:50.773Z,27.67
2022-11-16T07:35:22.029Z,19.43
2022-11-16T07:37:53.364Z,28.33
2022-11-16T07:40:24.753Z,29.00
2022-11-16T07:42:57.713Z,25.43
2022-11-16T07:45:29.252Z,30.67
2022-11-16T07:48:00.929Z,21.83
2022-11-16T07:50:32.247Z,26.20
2022-11-16T07:53:03.517Z,31.70
2022-11-16T07:55:34.841Z,28.53
2022-11-16T07:58:06.168Z,27.57
2022-11-16T08:00:37.447Z,27.43
2022-11-16T08:03:08.817Z,27.17
2022-11-16T08:05:40.234Z,32.23
2022-11-16T08:08:12.619Z,31.63
2022-11-16T08:10:44.212Z,30.13
2022-11-16T08:13:15.949Z,30.27
2022-11-16T08:15:47.269Z,28.03
2022-11-16T08:18:19.929Z,27.67
2022-11-16T08:20:55.384Z,28.67
2022-11-16T08:23:26.646Z,28.90
2022-11-16T08:26:06.364Z,27.00
2022-11-16T08:28:37.817Z,29.43
2022-11-16T08:31:15.121Z,30.00
2022-11-16T08:33:47.965Z,32.30
2022-11-16T08:36:20.072Z,32.93
2022-11-16T08:38:52.387Z,28.97
2022-11-16T08:41:24.167Z,32.20
2022-11-16T08:43:55.545Z,30.43
2022-11-16T08:46:27.001Z,30.50
2022-11-16T08:48:58.443Z,30.60
2022-11-16T08:51:29.813Z,28.37
2022-11-16T08:54:03.553Z,25.97
2022-11-16T08:56:35.031Z,28.63
2022-11-16T08:59:06.498Z,27.00
2022-11-16T09:01:38.001Z,26.20
2022-11-16T09:04:09.336Z,25.73
2022-11-16T09:06:40.611Z,28.90
2022-11-16T09:09:11.941Z,28.87
2022-11-16T09:11:43.309Z,30.67
2022-11-16T09:14:14.591Z,30.10
2022-11-16T09:16:45.888Z,30.53
2022-11-16T09:19:17.563Z,31.03
2022-11-16T09:21:48.894Z,29.37
2022-11-16T09:24:20.237Z,28.10
2022-11-16T09:26:51.588Z,32.30
2022-11-16T09:29:22.868Z,34.73
2022-11-16T09:31:55.088Z,25.87
2022-11-16T09:34:26.350Z,29.57
2022-11-16T09:36:57.666Z,30.70
2022-11-16T09:39:32.242Z,27.00
2022-11-16T09:42:32.776Z,34.60
2022-11-16T09:45:12.294Z,28.53
2022-11-16T09:47:51.634Z,30.87
2022-11-16T09:50:42.960Z,33.77
2022-11-16T09:53:25.758Z,33.57
2022-11-16T09:56:08.646Z,29.90
2022-11-16T09:58:48.571Z,30.57
2022-11-16T10:01:46.540Z,29.10
2022-11-16T10:04:38.414Z,24.87
2022-11-16T10:07:22.516Z,29.53
2022-11-16T10:09:56.041Z,27.53
2022-11-16T10:13:03.384Z,28.60
2022-11-16T10:15:53.145Z,29.52
2022-11-16T10:18:53.477Z,31.47
2022-11-16T10:21:54.407Z,29.70
2022-11-16T10:24:34.681Z,30.87
2022-11-16T10:27:27.631Z,33.20
2022-11-16T10:30:12.290Z,32.37
2022-11-16T10:32:59.626Z,31.40
2022-11-16T10:35:37.011Z,34.63
2022-11-16T10:38:14.148Z,35.83
2022-11-16T10:40:58.781Z,31.93
2022-11-16T10:43:32.382Z,35.83
2022-11-16T10:46:03.884Z,37.10
2022-11-16T10:48:57.487Z,30.30
2022-11-16T10:51:28.857Z,31.67
2022-11-16T10:54:00.416Z,34.30
2022-11-16T10:56:39.574Z,39.23
2022-11-16T10:59:13.600Z,32.20
2022-11-16T11:01:51.104Z,37.47
2022-11-16T11:04:24.833Z,36.67
2022-11-16T11:07:01.647Z,37.37
2022-11-16T11:09:34.522Z,41.97
2022-11-16T11:12:30.674Z,37.53
2022-11-16T11:15:10.839Z,36.73
2022-11-16T11:17:44.985Z,39.67
2022-11-16T11:20:16.447Z,38.03
2022-11-16T11:23:13.806Z,47.23
2022-11-16T11:28:32.714Z,38.37
2022-11-16T11:31:09.439Z,46.37
2022-11-16T11:33:52.326Z,42.33
2022-11-16T11:36:35.197Z,41.80
2022-11-16T11:39:08.205Z,48.07
2022-11-16T11:41:44.625Z,46.97
2022-11-16T11:44:17.822Z,42.30
2022-11-16T11:47:42.499Z,41.20
2022-11-16T11:49:53.244Z,54.43
2022-11-16T11:52:36.699Z,45.97
2022-11-16T11:55:08.691Z,46.13
2022-11-16T11:57:43.584Z,47.10
2022-11-16T12:00:15.862Z,44.00
2022-11-16T12:03:14.857Z,55.83
2022-11-16T12:06:07.445Z,44.80
2022-11-16T12:09:06.116Z,36.07
2022-11-16T12:12:15.152Z,55.23
2022-11-16T12:15:15.590Z,40.17
2022-11-16T12:18:18.274Z,47.37
2022-11-16T12:20:59.861Z,51.33
2022-11-16T12:23:49.890Z,49.43
2022-11-16T12:26:55.547Z,50.93
2022-11-16T12:29:40.446Z,48.90
2022-11-16T12:32:29.925Z,40.10
2022-11-16T12:35:24.483Z,43.20
2022-11-16T12:38:10.566Z,51.77
2022-11-16T12:40:57.957Z,49.63
2022-11-16T12:43:56.291Z,43.27
2022-11-16T12:46:48.556Z,43.40
2022-11-16T12:49:34.933Z,49.67
2022-11-16T12:52:41.083Z,46.58
2022-11-16T12:55:50.207Z,46.03
2022-11-16T12:58:36.626Z,50.63
2022-11-16T13:01:20.782Z,50.35
2022-11-16T13:04:28.344Z,47.07
2022-11-16T13:07:11.599Z,40.25
2022-11-16T13:09:48.916Z,42.57
2022-11-16T13:12:23.379Z,43.20
2022-11-16T13:14:57.573Z,47.03
2022-11-16T13:17:33.097Z,42.20
2022-11-16T13:20:20.785Z,51.72
2022-11-16T13:23:09.249Z,45.63
2022-11-16T13:25:51.142Z,44.20
2022-11-16T13:28:56.603Z,41.30
2022-11-16T13:31:39.518Z,42.50
2022-11-16T13:34:26.087Z,47.43
2022-11-16T13:36:57.525Z,45.13
2022-11-16T13:39:50.644Z,46.57
2022-11-16T13:42:21.988Z,36.80
2022-11-16T13:44:54.216Z,43.00
2022-11-16T13:47:30.366Z,48.77
2022-11-16T13:50:05.096Z,43.25
2022-11-16T13:54:03.786Z,40.57
2022-11-16T13:55:46.368Z,47.30
2022-11-16T13:58:22.453Z,44.63
2022-11-16T14:00:58.641Z,44.63
2022-11-16T14:06:18.681Z,41.77
2022-11-16T14:08:52.313Z,41.90
2022-11-16T14:11:38.688Z,47.33
2022-11-16T14:14:51.578Z,45.80
2022-11-16T14:17:49.089Z,44.07
2022-11-16T14:20:27.604Z,46.83
2022-11-16T14:23:45.834Z,42.10
2022-11-16T14:29:20.579Z,47.40
2022-11-16T14:31:55.791Z,48.93
2022-11-16T14:34:32.099Z,44.97
2022-11-16T14:39:37.472Z,41.13
2022-11-16T14:42:14.631Z,51.00
2022-11-16T14:44:46.916Z,50.70
2022-11-16T14:47:26.820Z,50.00
2022-11-16T14:49:58.139Z,58.20
2022-11-16T14:52:39.934Z,49.97
2022-11-16T14:55:20.025Z,43.40
2022-11-16T14:58:16.557Z,49.30
2022-11-16T15:00:57.014Z,48.45
2022-11-16T15:03:34.043Z,49.67
2022-11-16T15:06:07.307Z,40.87
2022-11-16T15:08:44.981Z,44.23
2022-11-16T15:11:56.471Z,46.30
2022-11-16T15:14:34.403Z,43.13
2022-11-16T15:17:07.696Z,43.90
2022-11-16T15:19:38.974Z,49.43
2022-11-16T15:22:17.229Z,38.77
2022-11-16T15:24:57.088Z,39.70
2022-11-16T15:27:38.584Z,36.63
2022-11-16T15:30:34.407Z,35.00
2022-11-16T15:33:11.455Z,33.80
2022-11-16T15:35:42.752Z,32.57
2022-11-16T15:38:21.827Z,32.87
2022-11-16T15:40:58.760Z,30.67
2022-11-16T15:43:45.154Z,36.30
2022-11-16T15:46:29.146Z,25.92
2022-11-16T15:49:01.122Z,28.47
2022-11-16T15:51:32.463Z,26.67
2022-11-16T15:54:24.339Z,26.83
2022-11-16T15:57:04.998Z,29.57
2022-11-16T15:59:37.138Z,27.93
2022-11-16T16:02:18.200Z,29.70
2022-11-16T16:04:50.276Z,26.30
2022-11-16T16:07:42.941Z,27.50
2022-11-16T16:10:20.121Z,24.00
2022-11-16T16:12:57.024Z,26.73
2022-11-16T16:15:34.009Z,22.07
2022-11-16T16:18:34.925Z,29.10
2022-11-16T16:21:06.458Z,24.63
2022-11-16T16:23:49.653Z,20.37
2022-11-16T16:26:22.305Z,30.13
2022-11-16T16:28:53.613Z,26.07
2022-11-16T16:31:24.938Z,28.93
2022-11-16T16:33:56.260Z,22.37
2022-11-16T16:36:27.606Z,28.67
2022-11-16T16:38:58.876Z,34.17
2022-11-16T16:41:30.129Z,36.53
2022-11-16T16:44:01.400Z,34.10
2022-11-16T16:46:32.656Z,33.70
2022-11-16T16:49:03.912Z,34.03
2022-11-16T16:51:35.206Z,38.80
2022-11-16T16:54:06.825Z,31.90
2022-11-16T16:56:38.122Z,29.87
2022-11-16T16:59:12.308Z,32.37
2022-11-16T17:01:43.611Z,33.03
2022-11-16T17:04:14.921Z,30.60
2022-11-16T17:06:46.755Z,28.93
2022-11-16T17:09:18.548Z,31.07
2022-11-16T17:11:49.919Z,29.73
2022-11-16T17:14:24.511Z,31.13
2022-11-16T17:16:55.804Z,31.33
2022-11-16T17:19:28.177Z,30.43
2022-11-16T17:21:59.963Z,27.23
2022-11-16T17:24:31.369Z,31.60
2022-11-16T17:27:03.059Z,32.37
2022-11-16T17:29:34.473Z,31.57
2022-11-16T17:32:06.037Z,28.43
2022-11-16T17:34:39.855Z,24.93
2022-11-16T17:37:11.362Z,30.83
2022-11-16T17:39:42.931Z,28.77
2022-11-16T17:42:14.285Z,31.30
2022-11-16T17:44:45.593Z,26.47
2022-11-16T17:47:16.893Z,28.27
2022-11-16T17:49:48.316Z,21.37
2022-11-16T17:52:19.595Z,23.43
2022-11-16T17:54:50.965Z,24.10
2022-11-16T17:57:22.285Z,22.73
2022-11-16T17:59:53.717Z,21.40
2022-11-16T18:02:25.206Z,24.53
2022-11-16T18:04:56.468Z,21.90
2022-11-16T18:07:30.053Z,20.00
2022-11-16T18:10:01.514Z,21.97
2022-11-16T18:12:32.799Z,16.73
2022-11-16T18:15:27.609Z,19.30
2022-11-16T18:17:56.775Z,23.57
2022-11-16T18:20:29.294Z,19.27
2022-11-16T18:23:00.812Z,18.70
2022-11-16T18:25:34.263Z,18.17
2022-11-16T18:28:05.553Z,19.00
2022-11-16T18:30:38.476Z,18.50
2022-11-16T18:33:10.270Z,24.10
2022-11-16T18:35:42.110Z,17.17
2022-11-16T18:38:13.454Z,20.07
2022-11-16T18:40:44.809Z,22.50
2022-11-16T18:43:16.068Z,16.20
2022-11-16T18:45:47.452Z,15.60
2022-11-16T18:48:18.727Z,16.73
2022-11-16T18:50:50.150Z,14.70
2022-11-16T18:53:21.413Z,15.33
2022-11-16T18:55:57.698Z,12.40
2022-11-16T18:58:58.618Z,14.97
2022-11-16T19:01:23.921Z,14.30
2022-11-16T19:03:56.265Z,12.77
2022-11-16T19:06:31.620Z,13.77
2022-11-16T19:09:04.272Z,13.98
2022-11-16T19:11:35.944Z,13.57
2022-11-16T19:14:10.181Z,12.07
2022-11-16T19:16:52.564Z,12.60
2022-11-16T19:19:27.705Z,11.03
2022-11-16T19:21:59.096Z,10.37
2022-11-16T19:24:30.468Z,13.60
2022-11-16T19:27:01.867Z,11.33
2022-11-16T19:29:33.174Z,10.57
2022-11-16T19:32:05.604Z,15.83
2022-11-16T19:34:36.900Z,9.17
2022-11-16T19:37:10.807Z,10.37
2022-11-16T19:39:42.302Z,8.47
2022-11-16T19:42:13.623Z,10.97
2022-11-16T19:44:44.974Z,8.03
2022-11-16T19:47:16.303Z,10.93
2022-11-16T19:49:50.000Z,8.73
2022-11-16T19:52:21.491Z,9.13
2022-11-16T19:54:52.831Z,8.53
2022-11-16T19:57:24.244Z,7.47
2022-11-16T19:59:56.222Z,7.97
2022-11-16T20:02:27.596Z,8.60
2022-11-16T20:04:59.945Z,6.30
2022-11-16T20:07:31.303Z,7.23
2022-11-16T20:10:02.619Z,6.40
2022-11-16T20:12:34.007Z,6.67
2022-11-16T20:15:05.790Z,6.20
2022-11-16T20:17:37.110Z,7.50
2022-11-16T20:20:08.979Z,6.53
2022-11-16T20:22:40.342Z,6.07
2022-11-16T20:25:11.743Z,7.17
2022-11-16T20:27:43.151Z,5.23
2022-11-16T20:30:14.506Z,6.33
2022-11-16T20:32:46.037Z,9.77
2022-11-16T20:35:19.209Z,8.53
2022-11-16T20:37:50.806Z,7.70
2022-11-16T20:40:22.257Z,6.33
2022-11-16T20:42:58.896Z,6.17
2022-11-16T20:45:33.446Z,7.37
2022-11-16T20:48:06.315Z,6.33
2022-11-16T20:50:37.573Z,5.27
2022-11-16T20:53:08.844Z,4.23
2022-11-16T20:55:41.164Z,6.40
2022-11-16T20:58:12.462Z,5.23
2022-11-16T21:00:44.124Z,5.63
2022-11-16T21:03:15.822Z,6.53
2022-11-16T21:05:51.631Z,7.00
2022-11-16T21:08:24.270Z,8.25
2022-11-16T21:10:57.128Z,6.60
2022-11-16T21:13:47.380Z,5.73
2022-11-16T21:16:18.708Z,6.17
2022-11-16T21:18:50.003Z,9.27
2022-11-16T21:21:21.757Z,6.57
2022-11-16T21:23:54.055Z,5.90
2022-11-16T21:26:31.287Z,7.67
2022-11-16T21:29:03.489Z,6.77
2022-11-16T21:31:36.344Z,7.10
2022-11-16T21:34:07.734Z,6.60
2022-11-16T21:36:39.282Z,6.97
2022-11-16T21:39:10.612Z,6.23
2022-11-16T21:41:41.900Z,5.93
2022-11-16T21:44:13.195Z,5.97
2022-11-16T21:46:44.456Z,7.07
2022-11-16T21:49:15.720Z,5.50
2022-11-16T21:51:46.985Z,5.00
2022-11-16T21:54:18.336Z,7.13
2022-11-16T21:56:49.589Z,5.37
2022-11-16T21:59:20.856Z,5.97
2022-11-16T22:02:01.099Z,5.83
2022-11-16T22:04:50.897Z,4.97
2022-11-16T22:07:37.938Z,6.47
2022-11-16T22:10:11.336Z,5.33
2022-11-16T22:12:42.723Z,6.83
2022-11-16T22:15:14.088Z,5.50
2022-11-16T22:17:45.608Z,5.97
2022-11-16T22:20:17.482Z,6.40
2022-11-16T22:22:48.814Z,5.43
2022-11-16T22:25:20.191Z,6.93
2022-11-16T22:28:19.029Z,6.30
2022-11-16T22:30:45.115Z,6.40
2022-11-16T22:33:20.023Z,7.10
2022-11-16T22:35:51.284Z,6.30
2022-11-16T22:38:22.855Z,8.37
2022-11-16T22:40:59.922Z,8.37
2022-11-16T22:43:31.543Z,7.30
2022-11-16T22:46:05.064Z,8.97
2022-11-16T22:48:39.397Z,10.80
2022-11-16T22:51:19.507Z,9.13
2022-11-16T22:53:54.743Z,10.07
2022-11-16T22:56:26.848Z,13.03
2022-11-16T22:58:58.872Z,10.70
2022-11-16T23:01:30.158Z,9.40
2022-11-16T23:04:01.758Z,10.97
2022-11-16T23:06:33.101Z,11.90
2022-11-16T23:09:04.478Z,11.83
2022-11-16T23:11:54.621Z,12.37
2022-11-16T23:14:44.558Z,12.27
2022-11-16T23:17:15.848Z,11.90
2022-11-16T23:20:05.824Z,10.47
2022-11-16T23:22:55.440Z,10.27
2022-11-16T23:25:45.573Z,9.47
2022-11-16T23:28:18.755Z,10.87
2022-11-16T23:30:50.089Z,10.20
2022-11-16T23:33:41.325Z,10.17
2022-11-16T23:36:12.840Z,11.20
2022-11-16T23:38:44.151Z,9.73
2022-11-16T23:41:34.022Z,10.90
2022-11-16T23:44:05.276Z,9.87
2022-11-16T23:46:36.633Z,10.87
2022-11-16T23:49:07.939Z,9.30
2022-11-16T23:51:39.296Z,10.37
2022-11-16T23:54:10.648Z,11.40
2022-11-16T23:56:41.997Z,10.23
2022-11-16T23:59:13.249Z,13.23
